createdAt,value
2022-10-24T00:01:09.281Z,12.23
2022-10-24T00:03:37.293Z,12.14
2022-10-24T00:06:08.021Z,12.18
2022-10-24T00:08:36.544Z,12.26
2022-10-24T00:11:10.745Z,12.27
2022-10-24T00:13:39.348Z,12.27
2022-10-24T00:16:09.392Z,12.34
2022-10-24T00:18:37.371Z,12.27
2022-10-24T00:21:06.205Z,12.26
2022-10-24T00:23:34.424Z,12.15
2022-10-24T00:26:04.278Z,11.92
2022-10-24T00:28:33.281Z,11.86
2022-10-24T00:31:01.815Z,11.66
2022-10-24T00:33:31.119Z,11.60
2022-10-24T00:35:59.048Z,11.67
2022-10-24T00:38:27.048Z,11.56
2022-10-24T00:40:54.964Z,11.52
2022-10-24T00:43:25.425Z,11.45
2022-10-24T00:45:56.105Z,11.47
2022-10-24T00:48:28.403Z,11.53
2022-10-24T00:51:02.921Z,11.44
2022-10-24T00:53:33.067Z,11.36
2022-10-24T00:56:03.457Z,11.27
2022-10-24T00:58:34.254Z,11.13
2022-10-24T01:01:02.809Z,10.96
2022-10-24T01:03:30.883Z,11.01
2022-10-24T01:06:19.465Z,10.99
2022-10-24T01:08:55.342Z,10.88
2022-10-24T01:11:39.028Z,10.88
2022-10-24T01:14:14.257Z,10.89
2022-10-24T01:16:50.226Z,10.92
2022-10-24T01:19:46.489Z,10.80
2022-10-24T01:22:21.114Z,10.63
2022-10-24T01:25:05.797Z,10.48
2022-10-24T01:27:58.299Z,10.55
2022-10-24T01:30:31.117Z,10.49
2022-10-24T01:33:04.785Z,10.53
2022-10-24T01:35:40.407Z,10.38
2022-10-24T01:38:18.013Z,10.54
2022-10-24T01:40:51.734Z,10.41
2022-10-24T01:43:24.535Z,10.53
2022-10-24T01:45:57.961Z,10.44
2022-10-24T01:48:27.345Z,10.60
2022-10-24T01:50:57.303Z,10.51
2022-10-24T01:53:28.914Z,10.58
2022-10-24T01:55:58.117Z,10.60
2022-10-24T01:58:27.477Z,10.54
2022-10-24T02:01:02.695Z,10.47
2022-10-24T02:03:37.753Z,10.50
2022-10-24T02:06:11.889Z,10.35
2022-10-24T02:08:44.683Z,10.36
2022-10-24T02:11:13.569Z,10.38
2022-10-24T02:13:49.030Z,10.35
2022-10-24T02:16:20.604Z,10.26
2022-10-24T02:18:50.364Z,10.29
2022-10-24T02:21:25.649Z,10.13
2022-10-24T02:23:59.695Z,10.25
2022-10-24T02:26:32.883Z,10.27
2022-10-24T02:29:05.920Z,10.42
2022-10-24T02:31:41.196Z,10.39
2022-10-24T02:36:42.527Z,10.53
2022-10-24T02:39:12.502Z,10.31
2022-10-24T02:41:43.747Z,10.27
2022-10-24T02:44:14.605Z,10.35
2022-10-24T02:46:46.650Z,10.42
2022-10-24T02:49:15.201Z,10.34
2022-10-24T02:51:46.015Z,10.40
2022-10-24T02:54:14.704Z,10.31
2022-10-24T02:56:46.745Z,10.45
2022-10-24T02:59:14.648Z,10.48
2022-10-24T03:01:44.051Z,10.37
2022-10-24T03:04:12.104Z,10.40
2022-10-24T03:06:40.185Z,10.44
2022-10-24T03:09:08.100Z,10.49
2022-10-24T03:11:36.134Z,10.59
2022-10-24T03:14:04.507Z,10.60
2022-10-24T03:16:32.458Z,10.67
2022-10-24T03:19:01.752Z,10.54
2022-10-24T03:21:29.806Z,10.57
2022-10-24T03:23:57.777Z,10.53
2022-10-24T03:26:25.801Z,10.41
2022-10-24T03:28:53.690Z,10.49
2022-10-24T03:31:21.615Z,10.48
2022-10-24T03:33:49.504Z,10.27
2022-10-24T03:36:19.292Z,10.31
2022-10-24T03:38:47.219Z,10.26
2022-10-24T03:41:15.159Z,10.19
2022-10-24T03:43:43.131Z,10.27
2022-10-24T03:46:11.124Z,10.15
2022-10-24T03:48:39.080Z,10.22
2022-10-24T03:51:07.257Z,10.28
2022-10-24T03:53:36.568Z,10.24
2022-10-24T03:56:05.248Z,10.19
2022-10-24T03:58:33.328Z,10.25
2022-10-24T04:01:01.743Z,10.15
2022-10-24T04:03:30.162Z,10.10
2022-10-24T04:05:58.156Z,10.15
2022-10-24T04:08:26.118Z,10.06
2022-10-24T04:10:55.640Z,9.92
2022-10-24T04:13:23.670Z,9.97
2022-10-24T04:15:51.843Z,10.06
2022-10-24T04:18:19.925Z,10.06
2022-10-24T04:20:47.882Z,10.05
2022-10-24T04:23:15.955Z,10.03
2022-10-24T04:25:44.683Z,10.03
2022-10-24T04:28:14.085Z,10.10
2022-10-24T04:33:14.989Z,10.15
2022-10-24T04:35:48.774Z,10.18
2022-10-24T04:38:16.859Z,10.02
2022-10-24T04:40:47.218Z,10.07
2022-10-24T04:43:16.850Z,10.00
2022-10-24T04:45:44.899Z,9.83
2022-10-24T04:48:13.267Z,9.78
2022-10-24T04:50:41.884Z,9.90
2022-10-24T04:53:10.324Z,9.96
2022-10-24T04:55:38.513Z,9.89
2022-10-24T04:58:06.975Z,9.97
2022-10-24T05:00:36.385Z,9.88
2022-10-24T05:03:06.290Z,9.80
2022-10-24T05:05:34.269Z,9.87
2022-10-24T05:08:02.239Z,9.83
2022-10-24T05:10:30.200Z,9.95
2022-10-24T05:12:58.351Z,9.89
2022-10-24T05:15:26.235Z,10.01
2022-10-24T05:17:55.616Z,9.82
2022-10-24T05:20:23.507Z,9.90
2022-10-24T05:22:51.527Z,9.87
2022-10-24T05:25:19.701Z,9.79
2022-10-24T05:27:47.698Z,9.75
2022-10-24T05:30:16.141Z,9.74
2022-10-24T05:32:44.600Z,9.74
2022-10-24T05:35:14.039Z,9.70
2022-10-24T05:37:44.040Z,9.85
2022-10-24T05:40:14.105Z,9.96
2022-10-24T05:42:42.598Z,9.95
2022-10-24T05:45:12.541Z,9.90
2022-10-24T05:47:40.414Z,9.84
2022-10-24T05:50:09.652Z,9.92
2022-10-24T05:52:46.131Z,9.92
2022-10-24T05:55:17.987Z,9.84
2022-10-24T05:57:47.254Z,9.89
2022-10-24T06:00:17.655Z,9.92
2022-10-24T06:05:20.001Z,9.77
2022-10-24T06:07:49.542Z,9.94
2022-10-24T06:10:17.662Z,9.89
2022-10-24T06:12:45.718Z,9.87
2022-10-24T06:15:14.751Z,9.95
2022-10-24T06:17:42.625Z,9.99
2022-10-24T06:20:11.250Z,10.05
2022-10-24T06:22:39.776Z,10.14
2022-10-24T06:25:09.972Z,10.26
2022-10-24T06:27:37.956Z,10.42
2022-10-24T06:30:07.517Z,10.38
2022-10-24T06:32:35.898Z,10.69
2022-10-24T06:35:04.789Z,10.70
2022-10-24T06:37:33.689Z,10.81
2022-10-24T06:40:01.608Z,10.86
2022-10-24T06:42:31.605Z,10.97
2022-10-24T06:47:28.343Z,11.13
2022-10-24T06:49:56.257Z,11.18
2022-10-24T06:52:24.263Z,11.25
2022-10-24T06:54:52.160Z,11.44
2022-10-24T06:57:20.103Z,11.60
2022-10-24T06:59:49.394Z,11.61
2022-10-24T07:02:18.432Z,11.62
2022-10-24T07:04:46.424Z,11.64
2022-10-24T07:07:16.591Z,11.82
2022-10-24T07:09:44.627Z,11.84
2022-10-24T07:12:12.831Z,11.85
2022-10-24T07:14:40.833Z,11.85
2022-10-24T07:17:10.138Z,12.16
2022-10-24T07:19:38.033Z,12.27
2022-10-24T07:22:06.281Z,12.39
2022-10-24T07:24:34.355Z,12.40
2022-10-24T07:27:02.590Z,12.65
2022-10-24T07:29:30.859Z,12.74
2022-10-24T07:31:59.587Z,12.95
2022-10-24T07:34:29.061Z,13.09
2022-10-24T07:36:56.989Z,13.28
2022-10-24T07:39:24.891Z,13.43
2022-10-24T07:41:52.864Z,13.42
2022-10-24T07:44:20.731Z,13.54
2022-10-24T07:46:48.698Z,13.59
2022-10-24T07:49:16.855Z,13.78
2022-10-24T07:51:46.136Z,13.78
2022-10-24T07:54:14.074Z,13.91
2022-10-24T07:56:42.089Z,13.99
2022-10-24T07:59:29.813Z,14.05
2022-10-24T08:01:57.924Z,14.13
2022-10-24T08:04:25.869Z,14.31
2022-10-24T08:06:55.156Z,14.41
2022-10-24T08:09:23.178Z,14.49
2022-10-24T08:11:51.192Z,14.50
2022-10-24T08:14:19.082Z,14.61
2022-10-24T08:16:47.097Z,14.77
2022-10-24T08:19:15.203Z,14.83
2022-10-24T08:21:43.210Z,14.81
2022-10-24T08:24:12.617Z,14.98
2022-10-24T08:26:40.575Z,15.00
2022-10-24T08:29:11.472Z,15.09
2022-10-24T08:31:39.565Z,15.24
2022-10-24T08:34:08.069Z,15.32
2022-10-24T08:36:37.073Z,15.39
2022-10-24T08:39:05.491Z,15.65
2022-10-24T08:41:38.013Z,15.79
2022-10-24T08:44:16.654Z,15.85
2022-10-24T08:46:50.405Z,16.09
2022-10-24T08:49:30.199Z,16.12
2022-10-24T08:52:01.742Z,16.24
2022-10-24T08:54:36.884Z,16.30
2022-10-24T08:57:08.616Z,16.46
2022-10-24T08:59:37.884Z,16.60
2022-10-24T09:02:16.672Z,16.74
2022-10-24T09:04:51.340Z,16.83
2022-10-24T09:07:21.903Z,17.16
2022-10-24T09:09:52.272Z,17.19
2022-10-24T09:12:23.291Z,17.38
2022-10-24T09:14:59.290Z,17.56
2022-10-24T09:17:32.413Z,17.89
2022-10-24T09:20:05.343Z,18.18
2022-10-24T09:22:39.499Z,18.56
2022-10-24T09:25:16.203Z,18.94
2022-10-24T09:27:46.425Z,19.52
2022-10-24T09:30:19.093Z,20.07
2022-10-24T09:32:48.022Z,20.55
2022-10-24T09:35:20.312Z,20.70
2022-10-24T09:37:52.843Z,21.46
2022-10-24T09:40:24.556Z,21.85
2022-10-24T09:42:59.864Z,21.78
2022-10-24T09:45:41.225Z,22.16
2022-10-24T09:48:21.206Z,22.34
2022-10-24T09:50:53.898Z,22.60
2022-10-24T09:53:28.240Z,22.83
2022-10-24T09:55:58.978Z,23.15
2022-10-24T09:58:33.728Z,22.98
2022-10-24T10:01:04.956Z,22.83
2022-10-24T10:03:34.136Z,23.06
2022-10-24T10:06:06.237Z,23.14
2022-10-24T10:08:36.749Z,23.33
2022-10-24T10:11:09.132Z,23.59
2022-10-24T10:13:50.013Z,23.76
2022-10-24T10:16:24.888Z,23.69
2022-10-24T10:19:02.176Z,23.65
2022-10-24T10:21:54.545Z,23.93
2022-10-24T10:24:27.506Z,24.29
2022-10-24T10:26:55.475Z,24.16
2022-10-24T10:29:25.534Z,24.38
2022-10-24T10:31:59.330Z,24.58
2022-10-24T10:34:35.777Z,24.65
2022-10-24T10:37:26.528Z,24.76
2022-10-24T10:40:19.531Z,25.04
2022-10-24T10:43:01.389Z,25.41
2022-10-24T10:45:37.291Z,25.72
2022-10-24T10:48:22.118Z,25.70
2022-10-24T10:50:56.642Z,25.83
2022-10-24T10:53:38.133Z,25.95
2022-10-24T10:56:19.644Z,25.94
2022-10-24T10:58:57.693Z,26.00
2022-10-24T11:01:34.904Z,25.50
2022-10-24T11:04:14.089Z,25.98
2022-10-24T11:06:47.957Z,26.15
2022-10-24T11:09:38.151Z,26.22
2022-10-24T11:12:13.328Z,26.44
2022-10-24T11:14:44.173Z,26.64
2022-10-24T11:17:17.847Z,26.98
2022-10-24T11:19:55.952Z,27.14
2022-10-24T11:22:28.932Z,27.14
2022-10-24T11:25:02.735Z,26.99
2022-10-24T11:27:38.406Z,27.40
2022-10-24T11:30:15.663Z,27.45
2022-10-24T11:32:51.261Z,27.63
2022-10-24T11:35:29.014Z,27.56
2022-10-24T11:38:03.100Z,27.55
2022-10-24T11:40:31.731Z,27.19
2022-10-24T11:43:12.001Z,27.52
2022-10-24T11:45:46.879Z,27.83
2022-10-24T11:48:22.898Z,27.93
2022-10-24T11:50:55.343Z,28.00
2022-10-24T11:53:45.944Z,27.84
2022-10-24T11:56:21.318Z,27.91
2022-10-24T11:58:58.660Z,28.52
2022-10-24T12:02:06.866Z,28.67
2022-10-24T12:05:00.402Z,28.96
2022-10-24T12:07:58.473Z,29.00
2022-10-24T12:10:47.233Z,29.45
2022-10-24T12:13:50.745Z,29.59
2022-10-24T12:16:29.998Z,29.57
2022-10-24T12:19:00.762Z,29.29
2022-10-24T12:21:39.531Z,28.91
2022-10-24T12:24:20.492Z,28.73
2022-10-24T12:26:56.657Z,29.11
2022-10-24T12:29:26.756Z,29.16
2022-10-24T12:31:55.241Z,29.19
2022-10-24T12:34:48.816Z,29.24
2022-10-24T12:37:46.625Z,29.42
2022-10-24T12:40:52.738Z,29.20
2022-10-24T12:43:33.425Z,29.51
2022-10-24T12:46:09.401Z,28.85
2022-10-24T12:48:43.174Z,29.10
2022-10-24T12:51:28.653Z,29.31
2022-10-24T12:54:19.426Z,29.60
2022-10-24T12:57:27.065Z,29.51
2022-10-24T12:59:57.729Z,29.21
2022-10-24T13:02:54.112Z,29.40
2022-10-24T13:05:48.833Z,29.44
2022-10-24T13:08:27.935Z,29.45
2022-10-24T13:11:14.263Z,29.51
2022-10-24T13:14:00.035Z,29.58
2022-10-24T13:16:41.445Z,30.06
2022-10-24T13:19:17.040Z,29.37
2022-10-24T13:21:48.885Z,29.90
2022-10-24T13:24:35.035Z,29.42
2022-10-24T13:27:31.273Z,29.68
2022-10-24T13:30:21.650Z,29.58
2022-10-24T13:32:49.563Z,29.64
2022-10-24T13:35:32.293Z,29.97
2022-10-24T13:38:04.786Z,29.70
2022-10-24T13:40:36.674Z,29.91
2022-10-24T13:43:15.426Z,29.57
2022-10-24T13:45:48.565Z,29.90
2022-10-24T13:48:20.799Z,29.77
2022-10-24T13:50:52.917Z,29.82
2022-10-24T13:53:30.281Z,30.06
2022-10-24T13:56:02.041Z,29.90
2022-10-24T13:58:41.034Z,29.90
2022-10-24T14:01:19.254Z,30.20
2022-10-24T14:03:49.597Z,29.87
2022-10-24T14:06:17.898Z,29.62
2022-10-24T14:09:01.420Z,29.86
2022-10-24T14:11:32.819Z,29.15
2022-10-24T14:14:07.313Z,29.00
2022-10-24T14:16:37.603Z,28.82
2022-10-24T14:19:16.791Z,28.46
2022-10-24T14:21:47.066Z,27.90
2022-10-24T14:24:17.065Z,27.30
2022-10-24T14:26:46.556Z,27.09
2022-10-24T14:29:23.540Z,27.19
2022-10-24T14:31:57.685Z,26.25
2022-10-24T14:34:26.237Z,26.02
2022-10-24T14:36:55.944Z,25.77
2022-10-24T14:39:24.883Z,25.01
2022-10-24T14:41:54.732Z,24.48
2022-10-24T14:44:24.892Z,24.07
2022-10-24T14:47:03.773Z,23.74
2022-10-24T14:49:33.841Z,23.82
2022-10-24T14:52:09.465Z,23.58
2022-10-24T14:54:38.191Z,23.38
2022-10-24T14:57:10.357Z,23.39
2022-10-24T14:59:46.701Z,23.48
2022-10-24T15:02:21.720Z,23.57
2022-10-24T15:04:52.013Z,23.73
2022-10-24T15:07:30.749Z,23.69
2022-10-24T15:10:00.868Z,23.49
2022-10-24T15:12:34.262Z,23.27
2022-10-24T15:15:26.326Z,22.92
2022-10-24T15:18:00.183Z,22.86
2022-10-24T15:20:30.049Z,22.64
2022-10-24T15:22:59.942Z,22.46
2022-10-24T15:25:31.149Z,22.43
2022-10-24T15:28:00.385Z,22.47
2022-10-24T15:30:31.952Z,22.27
2022-10-24T15:33:02.273Z,22.10
2022-10-24T15:35:31.740Z,21.98
2022-10-24T15:38:03.912Z,21.86
2022-10-24T15:40:35.445Z,21.74
2022-10-24T15:43:03.481Z,21.61
2022-10-24T15:45:32.840Z,21.58
2022-10-24T15:48:00.741Z,21.45
2022-10-24T15:50:28.674Z,20.96
2022-10-24T15:52:58.774Z,20.75
2022-10-24T15:55:28.447Z,20.61
2022-10-24T15:57:59.799Z,20.50
2022-10-24T16:00:28.231Z,20.38
2022-10-24T16:03:01.651Z,20.31
2022-10-24T16:05:35.718Z,20.22
2022-10-24T16:08:03.883Z,20.21
2022-10-24T16:10:31.871Z,20.18
2022-10-24T16:12:59.838Z,20.16
2022-10-24T16:18:07.476Z,20.23
2022-10-24T16:20:35.908Z,20.33
2022-10-24T16:23:06.934Z,20.06
2022-10-24T16:25:37.597Z,19.86
2022-10-24T16:28:07.491Z,19.86
2022-10-24T16:30:37.424Z,19.86
2022-10-24T16:33:05.521Z,19.87
2022-10-24T16:35:39.191Z,20.04
2022-10-24T16:38:09.176Z,20.23
2022-10-24T16:43:16.488Z,20.32
2022-10-24T16:45:47.277Z,20.54
2022-10-24T16:48:15.422Z,20.37
2022-10-24T16:50:46.482Z,20.22
2022-10-24T16:53:18.340Z,20.14
2022-10-24T16:55:48.390Z,19.65
2022-10-24T16:58:16.861Z,19.48
2022-10-24T17:00:45.329Z,19.25
2022-10-24T17:03:13.796Z,18.98
2022-10-24T17:05:44.042Z,18.67
2022-10-24T17:08:17.346Z,18.61
2022-10-24T17:10:45.308Z,18.57
2022-10-24T17:13:13.366Z,18.50
2022-10-24T17:15:42.099Z,18.45
2022-10-24T17:18:10.123Z,18.57
2022-10-24T17:20:38.082Z,18.62
2022-10-24T17:23:06.769Z,18.60
2022-10-24T17:25:36.455Z,18.73
2022-10-24T17:28:04.546Z,18.78
2022-10-24T17:30:32.744Z,18.54
2022-10-24T17:33:01.548Z,18.58
2022-10-24T17:35:30.441Z,18.48
2022-10-24T17:38:08.331Z,18.70
2022-10-24T17:40:43.776Z,18.48
2022-10-24T17:43:19.298Z,18.73
2022-10-24T17:45:47.952Z,18.60
2022-10-24T17:48:16.457Z,18.68
2022-10-24T17:50:46.129Z,18.71
2022-10-24T17:53:16.417Z,18.66
2022-10-24T17:55:48.022Z,18.85
2022-10-24T17:58:17.817Z,18.85
2022-10-24T18:00:46.892Z,18.87
2022-10-24T18:03:15.010Z,18.89
2022-10-24T18:05:42.972Z,18.92
2022-10-24T18:08:12.379Z,18.72
2022-10-24T18:10:42.325Z,18.84
2022-10-24T18:13:12.885Z,18.60
2022-10-24T18:15:40.805Z,18.58
2022-10-24T18:18:10.965Z,18.44
2022-10-24T18:20:39.134Z,18.28
2022-10-24T18:23:08.323Z,18.17
2022-10-24T18:25:38.084Z,18.08
2022-10-24T18:28:06.493Z,18.17
2022-10-24T18:30:36.738Z,18.12
2022-10-24T18:33:04.967Z,18.18
2022-10-24T18:35:34.166Z,17.97
2022-10-24T18:38:02.174Z,17.95
2022-10-24T18:40:33.647Z,17.83
2022-10-24T18:43:05.419Z,17.85
2022-10-24T18:45:36.313Z,17.77
2022-10-24T18:48:05.060Z,17.79
2022-10-24T18:50:33.874Z,17.73
2022-10-24T18:53:06.119Z,17.67
2022-10-24T18:55:36.910Z,17.69
2022-10-24T18:58:11.603Z,17.63
2022-10-24T19:00:43.043Z,17.58
2022-10-24T19:03:21.940Z,17.61
2022-10-24T19:05:55.044Z,17.72
2022-10-24T19:08:25.303Z,17.69
2022-10-24T19:10:56.440Z,17.56
2022-10-24T19:13:25.129Z,17.76
2022-10-24T19:15:58.191Z,17.58
2022-10-24T19:18:28.493Z,17.56
2022-10-24T19:20:56.569Z,17.67
2022-10-24T19:23:24.870Z,17.77
2022-10-24T19:25:53.297Z,17.76
2022-10-24T19:28:23.253Z,17.73
2022-10-24T19:30:51.205Z,17.67
2022-10-24T19:33:24.992Z,17.41
2022-10-24T19:35:52.965Z,17.30
2022-10-24T19:38:21.565Z,17.11
2022-10-24T19:40:52.004Z,17.14
2022-10-24T19:43:20.535Z,16.90
2022-10-24T19:45:50.859Z,16.80
2022-10-24T19:48:32.653Z,16.62
2022-10-24T19:51:04.637Z,16.56
2022-10-24T19:53:35.515Z,16.43
2022-10-24T19:56:08.225Z,16.24
2022-10-24T19:58:37.566Z,16.15
2022-10-24T20:01:07.068Z,16.19
2022-10-24T20:03:38.732Z,16.11
2022-10-24T20:06:07.631Z,15.95
2022-10-24T20:08:36.141Z,16.17
2022-10-24T20:11:04.938Z,15.96
2022-10-24T20:13:33.914Z,16.04
2022-10-24T20:16:04.047Z,15.89
2022-10-24T20:18:33.535Z,15.79
2022-10-24T20:21:05.528Z,15.72
2022-10-24T20:23:33.554Z,15.71
2022-10-24T20:26:03.281Z,15.67
2022-10-24T20:28:34.579Z,15.56
2022-10-24T20:31:03.631Z,15.49
2022-10-24T20:33:31.906Z,15.46
2022-10-24T20:36:00.702Z,15.44
2022-10-24T20:38:30.415Z,15.36
2022-10-24T20:41:02.478Z,15.37
2022-10-24T20:43:31.637Z,15.27
2022-10-24T20:45:59.649Z,15.43
2022-10-24T20:48:27.574Z,15.50
2022-10-24T20:50:55.724Z,15.48
2022-10-24T20:53:23.966Z,15.38
2022-10-24T20:55:53.524Z,15.58
2022-10-24T20:58:21.733Z,15.64
2022-10-24T21:00:50.305Z,15.49
2022-10-24T21:03:18.237Z,15.74
2022-10-24T21:05:46.101Z,15.67
2022-10-24T21:08:14.013Z,15.74
2022-10-24T21:10:42.234Z,15.79
2022-10-24T21:13:11.804Z,15.83
2022-10-24T21:15:39.717Z,15.66
2022-10-24T21:18:07.676Z,15.71
2022-10-24T21:20:37.465Z,15.55
2022-10-24T21:23:05.443Z,15.60
2022-10-24T21:25:33.452Z,15.57
2022-10-24T21:28:01.461Z,15.42
2022-10-24T21:30:30.797Z,15.40
2022-10-24T21:32:58.852Z,15.43
2022-10-24T21:35:26.836Z,15.30
2022-10-24T21:37:55.331Z,15.10
2022-10-24T21:40:23.505Z,15.16
2022-10-24T21:42:51.426Z,15.13
2022-10-24T21:45:19.728Z,15.06
2022-10-24T21:47:49.114Z,15.13
2022-10-24T21:50:17.248Z,15.10
2022-10-24T21:52:45.405Z,15.08
2022-10-24T21:55:13.610Z,14.98
2022-10-24T21:57:42.680Z,14.85
2022-10-24T22:00:12.234Z,14.75
2022-10-24T22:02:40.632Z,14.48
2022-10-24T22:05:11.018Z,14.61
2022-10-24T22:07:38.933Z,14.49
2022-10-24T22:10:07.781Z,14.41
2022-10-24T22:12:35.697Z,14.44
2022-10-24T22:15:04.356Z,14.52
2022-10-24T22:17:32.319Z,14.51
2022-10-24T22:20:00.234Z,14.54
2022-10-24T22:22:29.530Z,14.49
2022-10-24T22:24:57.461Z,14.32
2022-10-24T22:27:25.412Z,14.41
2022-10-24T22:29:53.345Z,14.31
2022-10-24T22:32:21.662Z,14.22
2022-10-24T22:34:50.140Z,14.16
2022-10-24T22:37:25.769Z,14.03
2022-10-24T22:39:55.663Z,13.79
2022-10-24T22:42:24.308Z,13.92
2022-10-24T22:44:52.800Z,13.93
2022-10-24T22:47:44.596Z,13.89
2022-10-24T22:50:29.379Z,13.87
2022-10-24T22:52:57.802Z,13.82
2022-10-24T22:55:33.064Z,13.94
2022-10-24T22:58:01.590Z,13.90
2022-10-24T23:00:30.176Z,14.03
2022-10-24T23:03:07.207Z,14.14
2022-10-24T23:05:38.843Z,14.05
2022-10-24T23:08:10.697Z,14.10
2022-10-24T23:10:40.656Z,13.94
2022-10-24T23:13:09.453Z,13.99
2022-10-24T23:15:37.939Z,14.01
2022-10-24T23:18:06.450Z,13.85
2022-10-24T23:20:37.465Z,13.82
2022-10-24T23:23:17.010Z,13.85
2022-10-24T23:26:04.805Z,13.94
2022-10-24T23:28:41.340Z,13.83
2022-10-24T23:31:09.989Z,13.97
2022-10-24T23:33:38.240Z,14.00
2022-10-24T23:36:06.942Z,14.12
2022-10-24T23:38:35.624Z,14.10
2022-10-24T23:41:05.604Z,14.12
2022-10-24T23:43:34.089Z,14.07
2022-10-24T23:46:06.173Z,13.98
2022-10-24T23:48:49.698Z,13.84
2022-10-24T23:51:25.917Z,13.86
2022-10-24T23:53:56.233Z,13.94
2022-10-24T23:56:27.433Z,13.78
2022-10-24T23:58:58.522Z,13.65
